Lancaster, PA

7:08 AM EDT on July 25, 2016 (GMT -0400)
Lancaster pa | | Change Station
Active Advisory: Heat Advisory

Elev 430 ft 40.00 °N, 76.24 °W | Updated 13 minutes ago

Clear
Clear
73.0 °F
Feels Like 73.0 °F
N
0.0
Wind Variable Wind from NW

Today
High -- | Low -- °F
--% Chance of Precip.
Yesterday
High -- | Low -- °F
Precip. -- in
Pressure 29.96 in
Visibility 5.0 miles
Clouds Clear
Dew Point 71 °F
Humidity 94%
Rainfall 0.06 in
Snow Depth Not available.
5:57 AM 8:24 PM
Waning Gibbous, 67% visible
METAR KLNS 251053Z 00000KT 5SM BR CLR 23/22 A2997 RMK AO2 SLP145 T02280222
Pressure 29.96 in
Visibility 5.0 miles
Clouds Clear
Dew Point 71 °F
Humidity 94%
Rainfall 0.06 in
Snow Depth Not available.
5:57 AM 8:24 PM
Waning Gibbous, 67% visible
METAR KLNS 251053Z 00000KT 5SM BR CLR 23/22 A2997 RMK AO2 SLP145 T02280222

10-Day Weather Forecast

Almanac

Astronomy

Jul. 25, 2016 Rise Set
Actual Time
Civil Twilight
Nautical Twilight
Astronomical Twilight
Moon
Length of Visible Light
Length of Day
Tomorrow will be .
, % of the Moon is Illuminated

Today's Extremes

State Highs State Lows

Community

WunderPhotos

Upload Photos

1,927,291 photos uploaded!

WunderBlog® & News

Nearby

Air Quality

  Air Quality AQ Index Pollutant
Not available.

Snow Depth

Station Depth Elevation

Earthquake Activity

City Distance Mag. Time & Date
Minimum magnitude displayed is 2.5.

Coastal Water Temperatures

Place Temperature

Stations

Nearby Weather Stations

Station Location Temp. Windchill Dew Point Humidity Wind Precip. Elev Updated Type
                   

Watches & Warnings

Heat Advisory
Issued: 2:57 AM EDT Jul. 25, 2016 – National Weather Service

... Heat advisory remains in effect from 3 PM this afternoon to
8 PM EDT this evening...

* heat index values... up to 104 due to temperatures in the mid
90s... and dewpoints in the lower 70s.

* Temperatures... in the mid 90s.

* Timing... this afternoon and early this evening.

* Impacts... heat stress or heat stroke. Limit outdoor exposure
and be sure to drink plenty of fluids. Seek air conditioning
if available.

Precautionary/preparedness actions...

Limit or reschedule strenuous outdoor activities. Find shade and
stay hydrated. Check up on the elderly... sick and those without
air conditioning. Never leave kids or pets unattended... look
before you lock.



Lambert